Time;durP1;ratioP1;P1;durP2;ratioP2;P2;SDS_P1;SDS_P2;PMS_P1;PMS_P2;Temp;Humidity;BMP_temperature;BMP_pressure;BME280_temperature;BME280_humidity;BME280_pressure;Samples;Min_cycle;Max_cycle;Signal;HPM_P1;HPM_P2
2022/02/28 00:02:11;;;;;;;10.67;7.30;;;5.60;56.60;;;;;;5075698;28;20645;-91
2022/02/28 00:04:37;;;;;;;9.80;7.80;;;5.60;56.60;;;;;;5084871;28;20200;-89
2022/02/28 00:07:03;;;;;;;12.33;6.50;;;5.60;56.80;;;;;;5096162;28;20187;-91
2022/02/28 00:09:29;;;;;;;12.07;6.10;;;5.40;57.20;;;;;;5096846;28;20188;-91
2022/02/28 00:11:54;;;;;;;12.53;7.43;;;5.30;57.80;;;;;;5094431;28;20426;-90
2022/02/28 00:14:21;;;;;;;14.40;6.70;;;5.20;58.10;;;;;;5094008;28;20216;-91
2022/02/28 00:16:50;;;;;;;16.98;8.25;;;5.40;58.30;;;;;;5094435;28;20599;-90
2022/02/28 00:19:16;;;;;;;13.18;7.57;;;5.50;58.30;;;;;;5095012;28;20219;-90
2022/02/28 00:21:42;;;;;;;15.25;7.25;;;5.60;58.20;;;;;;5095440;28;20647;-90
2022/02/28 00:24:07;;;;;;;10.77;7.15;;;5.50;57.90;;;;;;5095665;28;20280;-91
2022/02/28 00:26:33;;;;;;;11.27;6.37;;;5.60;58.20;;;;;;5096736;28;20676;-90
2022/02/28 00:28:59;;;;;;;14.30;8.40;;;5.40;57.90;;;;;;5097120;28;20428;-91
2022/02/28 00:31:24;;;;;;;11.73;7.70;;;5.10;58.20;;;;;;5097859;28;20180;-90
2022/02/28 00:33:50;;;;;;;12.40;7.00;;;5.00;58.60;;;;;;5096606;28;20291;-90
2022/02/28 00:36:16;;;;;;;11.77;7.87;;;5.10;59.20;;;;;;5097439;28;20211;-89
2022/02/28 00:38:42;;;;;;;11.70;7.60;;;5.20;59.20;;;;;;5100660;28;20229;-87
2022/02/28 00:41:08;;;;;;;12.60;7.87;;;5.00;59.00;;;;;;5101606;28;20176;-90
2022/02/28 00:43:34;;;;;;;11.20;7.50;;;5.00;59.40;;;;;;5102248;28;20449;-90
2022/02/28 00:46:00;;;;;;;10.90;7.60;;;5.10;59.60;;;;;;5103032;28;20176;-90
2022/02/28 00:48:27;;;;;;;11.05;6.90;;;5.00;59.50;;;;;;5103365;28;20176;-91
2022/02/28 00:50:52;;;;;;;10.00;7.50;;;5.10;59.60;;;;;;5100826;28;20180;-89
2022/02/28 00:53:18;;;;;;;13.00;7.30;;;5.00;59.30;;;;;;5097264;28;20211;-90
2022/02/28 00:55:44;;;;;;;14.80;7.88;;;4.90;59.50;;;;;;5096626;28;20475;-89
2022/02/28 00:58:10;;;;;;;12.73;7.20;;;4.90;59.70;;;;;;5096603;28;20183;-89
2022/02/28 01:00:36;;;;;;;12.23;6.70;;;4.90;59.80;;;;;;5096951;28;20433;-89
2022/02/28 01:03:02;;;;;;;13.50;7.50;;;5.00;59.80;;;;;;5076289;28;20221;-89
2022/02/28 01:05:28;;;;;;;13.52;7.70;;;4.90;59.70;;;;;;5078112;28;20172;-89
2022/02/28 01:07:55;;;;;;;17.65;7.45;;;4.80;59.80;;;;;;5084729;28;20179;-89
2022/02/28 01:10:23;;;;;;;13.57;6.68;;;4.70;59.90;;;;;;5095361;28;20262;-90
2022/02/28 01:12:51;;;;;;;14.48;6.68;;;4.90;60.00;;;;;;5095964;28;20175;-89
2022/02/28 01:15:18;;;;;;;14.10;7.00;;;4.80;59.90;;;;;;5095894;28;20212;-89
2022/02/28 01:17:44;;;;;;;15.32;6.35;;;4.70;60.10;;;;;;5096463;28;20180;-89
2022/02/28 01:20:13;;;;;;;9.80;6.32;;;4.80;60.20;;;;;;5096737;28;20694;-89
2022/02/28 01:22:39;;;;;;;13.73;7.43;;;4.80;60.10;;;;;;5096141;28;20605;-89
2022/02/28 01:25:07;;;;;;;15.27;7.03;;;4.80;60.20;;;;;;5099064;28;20620;-90
2022/02/28 01:27:33;;;;;;;12.10;7.22;;;4.80;60.30;;;;;;5100509;28;20188;-90
2022/02/28 01:29:59;;;;;;;15.23;7.35;;;4.80;60.10;;;;;;5096348;28;20210;-90
2022/02/28 01:32:24;;;;;;;8.77;6.27;;;4.60;60.30;;;;;;5097921;28;20186;-89
2022/02/28 01:34:51;;;;;;;9.60;6.03;;;4.40;60.90;;;;;;5102341;28;20457;-89
2022/02/28 01:37:17;;;;;;;9.57;6.38;;;4.20;61.50;;;;;;5101313;28;20414;-89
2022/02/28 01:39:45;;;;;;;12.38;7.10;;;4.20;62.10;;;;;;5098797;28;20180;-89
2022/02/28 01:42:12;;;;;;;12.52;6.88;;;4.40;62.90;;;;;;5095686;28;20175;-90
2022/02/28 01:44:38;;;;;;;11.52;6.50;;;4.70;61.50;;;;;;5094926;28;20257;-91
2022/02/28 01:47:04;;;;;;;14.95;7.38;;;4.70;61.20;;;;;;5097498;28;20626;-91
2022/02/28 01:49:32;;;;;;;9.13;6.30;;;4.70;61.00;;;;;;5096523;28;20187;-91
2022/02/28 01:52:02;;;;;;;10.45;6.35;;;4.70;61.00;;;;;;5096322;28;20463;-90
2022/02/28 01:54:28;;;;;;;12.13;5.45;;;4.70;60.80;;;;;;5095586;28;20298;-91
2022/02/28 01:56:54;;;;;;;11.27;7.30;;;4.60;61.50;;;;;;5096015;28;20218;-91
2022/02/28 01:59:19;;;;;;;9.13;5.43;;;4.50;60.80;;;;;;5103785;28;20231;-89
2022/02/28 02:01:45;;;;;;;12.23;6.40;;;4.50;61.00;;;;;;5099829;28;20414;-90
2022/02/28 02:04:11;;;;;;;10.77;5.80;;;4.60;61.00;;;;;;5101117;28;20601;-90
2022/02/28 02:06:37;;;;;;;8.90;5.80;;;4.60;60.90;;;;;;5102270;28;20784;-90
2022/02/28 02:09:04;;;;;;;11.20;5.73;;;4.50;60.90;;;;;;5100239;28;20413;-90
2022/02/28 02:11:30;;;;;;;8.85;5.35;;;4.50;61.00;;;;;;5101022;28;20517;-90
2022/02/28 02:13:57;;;;;;;13.38;6.25;;;4.60;61.10;;;;;;5100356;28;20215;-90
2022/02/28 02:16:23;;;;;;;13.88;6.88;;;4.50;61.10;;;;;;5099627;28;20611;-90
2022/02/28 02:18:49;;;;;;;10.00;6.33;;;4.50;61.00;;;;;;5099291;28;20172;-90
2022/02/28 02:21:15;;;;;;;9.15;6.10;;;4.60;60.90;;;;;;5096261;28;20425;-90
2022/02/28 02:23:42;;;;;;;9.73;5.47;;;4.60;60.80;;;;;;5094869;28;20584;-90
2022/02/28 02:26:13;;;;;;;11.23;5.78;;;4.60;61.00;;;;;;5093741;28;20955;-90
2022/02/28 02:28:40;;;;;;;9.55;6.38;;;4.60;61.00;;;;;;5086057;28;20172;-90
2022/02/28 02:31:07;;;;;;;9.95;5.60;;;4.60;60.90;;;;;;5093688;28;20183;-90
2022/02/28 02:33:33;;;;;;;16.63;6.20;;;4.60;61.00;;;;;;5096133;28;20287;-91
2022/02/28 02:36:01;;;;;;;15.48;6.35;;;4.70;61.00;;;;;;5102875;28;20168;-90
2022/02/28 02:38:28;;;;;;;10.07;6.15;;;4.60;61.70;;;;;;5110317;28;20203;-90
2022/02/28 02:40:54;;;;;;;9.68;5.45;;;4.60;61.10;;;;;;5113717;28;20183;-90
2022/02/28 02:43:20;;;;;;;19.98;6.32;;;4.40;61.30;;;;;;5111152;28;20211;-89
2022/02/28 02:45:46;;;;;;;11.35;7.00;;;4.40;61.70;;;;;;5102021;28;20758;-89
2022/02/28 02:48:14;;;;;;;11.88;6.00;;;4.30;61.80;;;;;;5095382;28;20179;-90
2022/02/28 02:50:41;;;;;;;12.70;6.15;;;4.10;62.30;;;;;;5095459;28;20175;-90
2022/02/28 02:53:07;;;;;;;9.88;5.43;;;4.00;62.60;;;;;;5093959;28;20211;-89
2022/02/28 02:55:33;;;;;;;14.40;6.00;;;4.20;62.60;;;;;;5093893;28;20172;-89
2022/02/28 02:58:00;;;;;;;16.83;7.10;;;4.30;62.50;;;;;;5094109;28;20424;-90
2022/02/28 03:00:26;;;;;;;19.20;7.32;;;4.20;62.50;;;;;;5093807;28;20475;-90
2022/02/28 03:02:51;;;;;;;13.23;6.05;;;4.10;62.60;;;;;;5093505;28;20262;-91
2022/02/28 03:05:17;;;;;;;8.13;5.70;;;4.10;62.70;;;;;;5095701;28;20214;-91
2022/02/28 03:07:43;;;;;;;12.03;6.60;;;4.20;62.80;;;;;;5096103;28;20272;-90
2022/02/28 03:10:09;;;;;;;9.67;5.43;;;4.20;62.60;;;;;;5094247;28;20266;-90
2022/02/28 03:12:35;;;;;;;12.88;6.70;;;4.30;62.40;;;;;;5093913;28;20190;-90
2022/02/28 03:15:03;;;;;;;9.60;5.95;;;4.30;62.40;;;;;;5077100;28;20276;-90
2022/02/28 03:17:29;;;;;;;6.93;6.05;;;4.00;62.40;;;;;;5093273;28;20183;-89
2022/02/28 03:19:55;;;;;;;12.40;5.80;;;3.80;63.00;;;;;;5095054;28;20184;-89
2022/02/28 03:22:21;;;;;;;10.00;5.57;;;3.70;63.50;;;;;;5095294;28;20172;-89
2022/02/28 03:24:46;;;;;;;8.80;5.67;;;3.90;63.70;;;;;;5099777;28;20199;-89
2022/02/28 03:27:12;;;;;;;9.00;6.20;;;4.00;63.00;;;;;;5093516;28;20207;-89
2022/02/28 03:29:38;;;;;;;19.97;6.07;;;4.00;62.80;;;;;;5093807;28;20689;-89
2022/02/28 03:32:04;;;;;;;10.40;5.63;;;3.90;62.90;;;;;;5093349;28;20258;-88
2022/02/28 03:34:30;;;;;;;13.18;6.10;;;3.60;63.40;;;;;;5093781;28;20249;-89
2022/02/28 03:36:56;;;;;;;9.63;6.43;;;3.50;64.00;;;;;;5096641;28;20184;-88
2022/02/28 03:39:23;;;;;;;9.48;6.03;;;3.80;63.80;;;;;;5097772;28;20426;-88
2022/02/28 03:41:50;;;;;;;11.90;6.43;;;3.90;63.30;;;;;;5103233;28;20183;-88
2022/02/28 03:44:16;;;;;;;10.15;5.32;;;3.90;63.20;;;;;;5103263;28;20199;-87
2022/02/28 03:46:47;;;;;;;15.57;6.43;;;3.80;63.30;;;;;;5102287;28;20196;-88
2022/02/28 03:49:13;;;;;;;12.02;5.88;;;3.70;63.80;;;;;;5099308;28;20168;-91
2022/02/28 03:51:39;;;;;;;10.63;6.97;;;3.80;63.70;;;;;;5096775;28;20184;-89
2022/02/28 03:54:06;;;;;;;7.53;5.87;;;3.80;63.70;;;;;;5094720;28;20586;-88
2022/02/28 03:56:32;;;;;;;11.25;6.57;;;3.90;63.80;;;;;;5095709;28;20535;-88
2022/02/28 03:58:58;;;;;;;11.18;7.20;;;4.00;63.40;;;;;;5097852;28;20180;-88
2022/02/28 04:01:23;;;;;;;9.53;6.07;;;3.80;63.50;;;;;;5097388;28;20184;-89
2022/02/28 04:03:49;;;;;;;8.40;6.10;;;3.90;63.60;;;;;;5096754;28;20247;-89
2022/02/28 04:06:15;;;;;;;9.90;6.00;;;3.90;63.30;;;;;;5097871;28;20701;-89
2022/02/28 04:08:41;;;;;;;13.43;6.37;;;3.90;63.10;;;;;;5096882;28;20424;-89
2022/02/28 04:11:07;;;;;;;9.60;5.37;;;3.80;63.00;;;;;;5098390;28;20429;-89
2022/02/28 04:13:33;;;;;;;13.93;6.90;;;3.80;63.10;;;;;;5096419;28;20836;-89
2022/02/28 04:15:59;;;;;;;13.27;5.60;;;3.80;63.30;;;;;;5097582;28;20200;-89
2022/02/28 04:18:25;;;;;;;13.67;5.87;;;3.60;63.60;;;;;;5097701;28;20422;-89
2022/02/28 04:20:50;;;;;;;9.90;5.80;;;3.40;64.00;;;;;;5097037;28;20180;-89
2022/02/28 04:23:16;;;;;;;13.83;6.70;;;3.30;64.20;;;;;;5076299;28;20201;-89
2022/02/28 04:25:43;;;;;;;11.93;6.30;;;3.40;64.40;;;;;;5096100;28;20717;-89
2022/02/28 04:28:09;;;;;;;12.25;6.10;;;3.40;64.80;;;;;;5096822;28;20210;-88
2022/02/28 04:30:35;;;;;;;16.83;6.43;;;3.20;65.00;;;;;;5098368;28;20184;-87
2022/02/28 04:33:01;;;;;;;15.23;5.33;;;3.00;65.40;;;;;;5098167;28;20196;-88
2022/02/28 04:35:26;;;;;;;12.50;5.00;;;2.90;65.80;;;;;;5096546;28;20942;-88
2022/02/28 04:38:10;;;;;;;19.97;5.70;;;3.00;66.10;;;;;;5098221;28;20541;-89
2022/02/28 04:40:36;;;;;;;10.98;6.10;;;3.00;66.20;;;;;;5096794;28;20245;-89
2022/02/28 04:43:03;;;;;;;10.13;4.75;;;2.90;66.40;;;;;;5096163;28;20207;-88
2022/02/28 04:45:29;;;;;;;11.60;5.85;;;3.10;66.40;;;;;;5096251;28;20175;-88
2022/02/28 04:47:56;;;;;;;10.40;6.00;;;3.10;66.20;;;;;;5098320;28;20206;-89
2022/02/28 04:50:21;;;;;;;11.98;5.72;;;3.10;66.00;;;;;;5097239;28;20241;-88
2022/02/28 04:52:47;;;;;;;8.60;5.53;;;3.00;65.90;;;;;;5097574;28;20656;-89
2022/02/28 04:55:13;;;;;;;7.27;5.50;;;3.00;66.00;;;;;;5096577;28;20442;-89
2022/02/28 04:57:41;;;;;;;9.25;5.85;;;3.00;66.10;;;;;;5097364;28;20164;-90
2022/02/28 05:00:08;;;;;;;9.90;4.95;;;3.10;66.20;;;;;;5097545;28;20183;-91
2022/02/28 05:02:34;;;;;;;14.13;6.90;;;3.20;65.90;;;;;;5099974;28;20176;-89
2022/02/28 05:05:00;;;;;;;9.90;5.50;;;3.10;65.70;;;;;;5103679;28;20256;-89
2022/02/28 05:07:27;;;;;;;13.27;6.65;;;3.00;65.70;;;;;;5104349;28;20433;-89
2022/02/28 05:09:56;;;;;;;9.63;5.97;;;2.80;66.10;;;;;;5105167;28;20280;-89
2022/02/28 05:12:23;;;;;;;13.48;6.38;;;2.70;66.60;;;;;;5102470;28;20179;-89
2022/02/28 05:14:49;;;;;;;12.73;6.53;;;2.70;66.80;;;;;;5100451;28;20211;-90
2022/02/28 05:17:15;;;;;;;9.82;5.20;;;2.90;66.90;;;;;;5100486;28;20214;-89
2022/02/28 05:19:42;;;;;;;12.95;5.75;;;2.90;67.50;;;;;;5097905;28;20194;-89
2022/02/28 05:22:08;;;;;;;9.15;5.13;;;3.00;66.60;;;;;;5098746;28;20172;-89
2022/02/28 05:24:34;;;;;;;12.70;6.00;;;2.90;66.30;;;;;;5112582;28;20283;-88
2022/02/28 05:27:00;;;;;;;9.88;5.35;;;2.70;66.50;;;;;;5115585;28;20436;-89
2022/02/28 05:29:29;;;;;;;8.38;5.18;;;2.80;66.70;;;;;;5111087;28;20270;-89
2022/02/28 05:31:55;;;;;;;11.60;6.72;;;2.80;66.80;;;;;;5100844;28;20183;-89
2022/02/28 05:34:22;;;;;;;11.98;5.10;;;2.80;66.80;;;;;;5099324;28;20239;-89
2022/02/28 05:36:49;;;;;;;10.65;5.75;;;2.70;66.80;;;;;;5101692;28;20262;-89
2022/02/28 05:39:14;;;;;;;11.20;5.50;;;2.60;66.80;;;;;;5102695;28;20172;-89
2022/02/28 05:41:40;;;;;;;8.70;6.00;;;2.50;67.10;;;;;;5100946;28;20186;-89
2022/02/28 05:44:06;;;;;;;8.80;5.50;;;2.60;67.40;;;;;;5101338;28;20196;-89
2022/02/28 05:46:32;;;;;;;12.23;6.00;;;2.50;67.40;;;;;;5100130;28;20195;-89
2022/02/28 05:48:58;;;;;;;15.17;6.90;;;2.60;67.50;;;;;;5095961;28;20263;-89
2022/02/28 05:51:25;;;;;;;10.60;5.63;;;2.70;67.40;;;;;;5094980;28;20429;-88
2022/02/28 05:53:53;;;;;;;13.40;6.18;;;2.60;67.40;;;;;;5098421;28;20199;-89
2022/02/28 05:56:20;;;;;;;10.02;6.00;;;2.60;67.40;;;;;;5094911;28;20164;-89
2022/02/28 05:58:45;;;;;;;12.90;5.30;;;2.60;67.40;;;;;;5094339;28;20651;-89
2022/02/28 06:01:11;;;;;;;9.40;5.70;;;2.70;67.50;;;;;;5094978;28;20183;-89
2022/02/28 06:03:37;;;;;;;8.52;4.97;;;2.70;67.20;;;;;;5094452;28;20192;-90
2022/02/28 06:06:04;;;;;;;11.00;6.40;;;2.60;67.30;;;;;;5095386;28;20187;-89
2022/02/28 06:08:29;;;;;;;12.18;5.75;;;2.70;67.50;;;;;;5096150;28;20410;-89
2022/02/28 06:11:10;;;;;;;9.53;6.50;;;2.50;67.30;;;;;;5096161;28;20175;-89
2022/02/28 06:13:36;;;;;;;10.27;5.70;;;2.60;67.40;;;;;;5100229;28;20468;-88
2022/02/28 06:16:03;;;;;;;10.43;4.53;;;2.60;67.40;;;;;;5098072;28;20179;-89
2022/02/28 06:18:29;;;;;;;12.52;6.80;;;2.60;67.40;;;;;;5096313;28;20198;-89
2022/02/28 06:20:55;;;;;;;10.97;5.60;;;2.50;67.50;;;;;;5095513;28;20188;-87
2022/02/28 06:23:21;;;;;;;10.13;5.40;;;2.60;67.50;;;;;;5095054;28;20449;-87
2022/02/28 06:25:47;;;;;;;13.30;6.03;;;2.60;67.50;;;;;;5094361;28;20243;-87
2022/02/28 06:28:20;;;;;;;15.65;6.05;;;2.70;67.40;;;;;;5095579;28;20168;-87
2022/02/28 06:30:46;;;;;;;8.68;5.20;;;2.70;67.10;;;;;;5094915;28;20709;-87
2022/02/28 06:33:12;;;;;;;14.10;7.70;;;2.60;66.90;;;;;;5095932;28;20216;-87
2022/02/28 06:35:38;;;;;;;7.10;4.90;;;2.60;67.00;;;;;;5098013;28;20660;-88
2022/02/28 06:38:05;;;;;;;11.50;5.07;;;2.70;67.20;;;;;;5097617;28;20203;-87
2022/02/28 06:40:30;;;;;;;11.85;5.85;;;2.60;67.00;;;;;;5102521;28;20179;-88
2022/02/28 06:42:56;;;;;;;14.30;5.50;;;2.70;67.00;;;;;;5100516;28;20178;-88
2022/02/28 06:45:24;;;;;;;8.17;5.13;;;2.80;66.90;;;;;;5099789;28;20172;-88
2022/02/28 06:47:51;;;;;;;10.50;5.95;;;2.80;66.70;;;;;;5077940;28;20434;-89
2022/02/28 06:50:17;;;;;;;14.93;5.70;;;2.80;66.50;;;;;;5094854;28;20180;-88
2022/02/28 06:52:43;;;;;;;13.55;5.25;;;2.80;66.50;;;;;;5094189;28;20176;-88
2022/02/28 06:55:09;;;;;;;10.40;6.37;;;2.90;66.50;;;;;;5094309;28;20334;-88
2022/02/28 06:57:35;;;;;;;11.17;6.83;;;2.90;66.30;;;;;;5095909;28;20417;-88
2022/02/28 07:00:01;;;;;;;8.87;6.33;;;3.00;66.00;;;;;;5095726;28;20179;-88
2022/02/28 07:02:26;;;;;;;10.77;5.80;;;3.00;65.60;;;;;;5102714;28;20234;-87
2022/02/28 07:04:52;;;;;;;8.30;5.80;;;3.10;65.50;;;;;;5095135;28;20448;-88
2022/02/28 07:07:18;;;;;;;13.00;7.57;;;3.00;65.40;;;;;;5096493;28;20270;-88
2022/02/28 07:09:45;;;;;;;8.43;6.53;;;3.10;65.40;;;;;;5095033;28;20218;-88
2022/02/28 07:12:11;;;;;;;11.75;6.20;;;3.10;65.20;;;;;;5094523;28;20179;-88
2022/02/28 07:14:38;;;;;;;11.40;6.80;;;3.10;65.10;;;;;;5097165;28;20285;-88
2022/02/28 07:17:03;;;;;;;10.45;5.82;;;3.10;65.10;;;;;;5098697;28;20182;-87
2022/02/28 07:19:29;;;;;;;12.50;6.83;;;3.10;65.20;;;;;;5093966;28;20171;-87
2022/02/28 07:21:56;;;;;;;10.60;6.40;;;3.10;65.30;;;;;;5094932;28;20429;-88
2022/02/28 07:24:22;;;;;;;8.38;5.60;;;3.20;65.20;;;;;;5093428;28;20200;-87
2022/02/28 07:26:49;;;;;;;7.40;5.60;;;3.30;64.80;;;;;;5095524;28;20172;-87
2022/02/28 07:29:15;;;;;;;10.80;6.15;;;3.30;64.70;;;;;;5093703;28;20192;-88
2022/02/28 07:31:42;;;;;;;8.43;5.68;;;3.40;64.40;;;;;;5097363;28;20180;-87
2022/02/28 07:34:09;;;;;;;10.40;5.50;;;3.40;64.50;;;;;;5098493;28;20211;-88
2022/02/28 07:36:36;;;;;;;8.35;5.18;;;3.40;64.30;;;;;;5097889;28;20229;-88
2022/02/28 07:39:02;;;;;;;9.93;5.55;;;3.50;64.10;;;;;;5099273;28;20172;-88
2022/02/28 07:41:28;;;;;;;11.70;7.07;;;3.60;63.70;;;;;;5102232;28;20179;-87
2022/02/28 07:43:54;;;;;;;14.65;6.50;;;3.60;63.70;;;;;;5098397;28;20204;-88
2022/02/28 07:46:19;;;;;;;9.27;6.30;;;3.70;63.50;;;;;;5078160;28;20184;-88
2022/02/28 07:48:50;;;;;;;11.10;5.95;;;3.80;63.30;;;;;;5101609;28;20189;-88
2022/02/28 07:51:16;;;;;;;9.90;5.18;;;3.80;62.90;;;;;;5098059;28;20292;-89
2022/02/28 07:53:42;;;;;;;10.55;6.43;;;3.90;62.80;;;;;;5096979;28;20208;-88
2022/02/28 07:56:08;;;;;;;10.40;6.73;;;3.90;62.80;;;;;;5099162;28;20182;-88
2022/02/28 07:58:34;;;;;;;18.02;6.82;;;4.00;62.50;;;;;;5099868;28;20184;-88
2022/02/28 08:01:00;;;;;;;12.73;6.30;;;3.90;62.20;;;;;;5099450;28;20191;-88
2022/02/28 08:03:26;;;;;;;14.10;6.73;;;3.90;62.40;;;;;;5100636;28;20242;-88
2022/02/28 08:05:52;;;;;;;10.03;5.80;;;4.00;62.70;;;;;;5102720;28;20422;-89
2022/02/28 08:08:17;;;;;;;10.30;6.40;;;3.70;62.20;;;;;;5104222;28;20187;-88
2022/02/28 08:10:43;;;;;;;15.63;7.05;;;3.80;62.70;;;;;;5102990;28;20191;-88
2022/02/28 08:13:11;;;;;;;9.27;5.73;;;4.00;62.60;;;;;;5103021;28;20203;-88
2022/02/28 08:15:39;;;;;;;11.82;6.25;;;3.90;63.00;;;;;;5100526;28;20176;-88
2022/02/28 08:18:05;;;;;;;8.77;6.55;;;4.10;62.50;;;;;;5100879;28;20179;-89
2022/02/28 08:20:32;;;;;;;16.30;5.28;;;4.10;62.10;;;;;;5098626;28;20620;-88
2022/02/28 08:22:58;;;;;;;13.32;6.63;;;4.20;62.10;;;;;;5098173;28;20196;-89
2022/02/28 08:25:24;;;;;;;11.80;6.45;;;4.20;61.80;;;;;;5099354;28;20184;-88
2022/02/28 08:27:50;;;;;;;12.23;6.83;;;4.30;61.90;;;;;;5099156;28;20168;-87
2022/02/28 08:30:15;;;;;;;11.37;5.43;;;4.40;61.50;;;;;;5099412;28;20204;-88
2022/02/28 08:32:43;;;;;;;14.50;6.00;;;4.30;61.30;;;;;;5104421;28;20239;-88
2022/02/28 08:35:09;;;;;;;12.15;6.97;;;4.40;61.50;;;;;;5103763;28;20469;-87
2022/02/28 08:37:35;;;;;;;11.80;5.97;;;4.60;61.70;;;;;;5098211;28;20180;-89
2022/02/28 08:40:01;;;;;;;12.20;6.70;;;4.70;61.40;;;;;;5101906;28;20164;-87
2022/02/28 08:42:27;;;;;;;16.35;6.55;;;4.60;60.60;;;;;;5101726;28;20179;-88
2022/02/28 08:44:52;;;;;;;16.23;6.80;;;4.60;60.50;;;;;;5107787;28;20212;-87
2022/02/28 08:47:19;;;;;;;8.33;6.23;;;4.60;60.90;;;;;;5101744;28;20267;-87
2022/02/28 08:49:45;;;;;;;16.13;7.00;;;4.80;60.80;;;;;;5096259;28;20168;-88
2022/02/28 08:52:11;;;;;;;14.20;6.33;;;4.90;60.30;;;;;;5096278;28;20187;-87
2022/02/28 08:54:37;;;;;;;13.53;7.23;;;4.90;59.80;;;;;;5095334;28;20536;-87
2022/02/28 08:57:05;;;;;;;10.33;6.97;;;4.90;59.90;;;;;;5095847;28;20539;-87
2022/02/28 08:59:31;;;;;;;15.55;7.50;;;5.00;59.80;;;;;;5099770;28;20445;-88
2022/02/28 09:01:57;;;;;;;10.35;6.03;;;5.10;59.60;;;;;;5096494;28;20187;-88
2022/02/28 09:04:23;;;;;;;14.82;6.30;;;5.10;59.20;;;;;;5096429;28;20195;-87
2022/02/28 09:06:49;;;;;;;8.07;6.33;;;5.20;59.20;;;;;;5096745;28;20233;-88
2022/02/28 09:09:15;;;;;;;11.47;6.87;;;5.10;58.90;;;;;;5097332;28;20179;-88
2022/02/28 09:11:41;;;;;;;9.30;6.15;;;5.30;58.90;;;;;;5095938;28;20252;-88
2022/02/28 09:14:07;;;;;;;11.13;6.23;;;5.30;58.40;;;;;;5100875;28;20211;-87
2022/02/28 09:16:33;;;;;;;11.75;7.22;;;5.30;57.40;;;;;;5106642;28;20179;-87
2022/02/28 09:18:59;;;;;;;14.17;7.07;;;5.40;57.50;;;;;;5103173;28;20172;-87
2022/02/28 09:21:26;;;;;;;12.53;6.70;;;5.40;56.70;;;;;;5103589;28;20172;-86
2022/02/28 09:23:53;;;;;;;11.25;5.90;;;5.50;56.40;;;;;;5098941;28;20595;-87
2022/02/28 09:26:19;;;;;;;13.57;7.05;;;5.60;55.90;;;;;;5088873;28;20192;-87
2022/02/28 09:28:45;;;;;;;9.63;6.72;;;5.70;55.70;;;;;;5077501;28;20399;-87
2022/02/28 09:31:11;;;;;;;8.70;6.37;;;5.70;55.10;;;;;;5076847;28;20210;-87
2022/02/28 09:33:37;;;;;;;12.40;6.87;;;5.70;54.80;;;;;;5077791;28;20474;-87
2022/02/28 09:36:04;;;;;;;11.30;6.50;;;5.80;54.40;;;;;;5081342;28;20419;-87
2022/02/28 09:38:30;;;;;;;11.20;6.22;;;5.80;53.90;;;;;;5081412;28;20172;-87
2022/02/28 09:40:57;;;;;;;9.70;5.63;;;5.90;53.80;;;;;;5080731;28;20172;-88
2022/02/28 09:43:23;;;;;;;7.28;4.85;;;6.10;53.80;;;;;;5078975;28;20246;-88
2022/02/28 09:45:53;;;;;;;9.87;5.50;;;6.30;53.70;;;;;;5087155;28;20262;-87
2022/02/28 09:48:19;;;;;;;11.85;6.18;;;6.30;52.90;;;;;;5095545;28;20198;-88
2022/02/28 09:50:45;;;;;;;9.60;6.03;;;6.40;52.80;;;;;;5095201;28;20176;-87
2022/02/28 09:53:10;;;;;;;13.50;7.23;;;6.50;52.80;;;;;;5093430;28;20230;-87
2022/02/28 09:55:36;;;;;;;9.30;5.53;;;6.60;52.40;;;;;;5094448;28;20207;-88
2022/02/28 09:58:02;;;;;;;12.73;6.10;;;6.70;52.20;;;;;;5094463;28;20195;-87
2022/02/28 10:00:28;;;;;;;10.47;6.70;;;6.80;51.90;;;;;;5094686;28;20172;-87
2022/02/28 10:02:56;;;;;;;9.93;6.87;;;6.70;51.50;;;;;;5094343;28;20497;-87
2022/02/28 10:05:23;;;;;;;10.13;5.65;;;6.90;51.60;;;;;;5094252;28;20455;-88
2022/02/28 10:08:09;;;;;;;9.55;6.10;;;7.20;51.40;;;;;;5094830;28;20270;-87
2022/02/28 10:10:34;;;;;;;8.30;5.85;;;7.00;51.10;;;;;;5094287;28;20179;-86
2022/02/28 10:13:01;;;;;;;12.50;6.07;;;7.10;51.30;;;;;;5096059;28;20195;-88
2022/02/28 10:15:27;;;;;;;13.48;6.10;;;7.30;51.30;;;;;;5094694;28;20290;-88
2022/02/28 10:18:01;;;;;;;9.93;5.60;;;7.30;50.80;;;;;;5096379;28;20230;-88
2022/02/28 10:20:29;;;;;;;111.30;16.13;;;7.20;50.40;;;;;;5094889;28;20947;-89
2022/02/28 10:22:57;;;;;;;10.85;7.05;;;7.30;50.70;;;;;;5093353;28;20228;-88
2022/02/28 10:25:32;;;;;;;9.65;6.53;;;7.40;50.40;;;;;;5073050;28;20659;-88
2022/02/28 10:28:15;;;;;;;8.75;6.75;;;7.60;49.40;;;;;;5075337;28;20180;-88
2022/02/28 10:30:50;;;;;;;9.52;5.78;;;7.60;49.60;;;;;;5074308;28;20176;-88
2022/02/28 10:33:16;;;;;;;9.93;5.25;;;7.60;49.40;;;;;;5073917;28;20588;-88
2022/02/28 10:35:59;;;;;;;9.93;5.90;;;7.60;48.40;;;;;;5074256;28;20180;-88
2022/02/28 10:38:30;;;;;;;16.30;5.93;;;7.70;48.50;;;;;;5073798;28;20259;-88
2022/02/28 10:40:57;;;;;;;9.60;5.85;;;7.80;47.70;;;;;;5074114;28;20180;-88
2022/02/28 10:43:27;;;;;;;10.80;6.82;;;8.00;48.10;;;;;;5073092;28;20193;-88
2022/02/28 10:45:55;;;;;;;7.85;5.20;;;8.10;48.10;;;;;;5075201;28;20190;-88
2022/02/28 10:48:22;;;;;;;8.25;5.43;;;8.00;47.50;;;;;;5074459;28;20217;-88
2022/02/28 10:50:50;;;;;;;12.40;5.90;;;8.30;48.00;;;;;;5093643;28;20183;-88
2022/02/28 10:53:21;;;;;;;10.15;5.47;;;8.30;47.00;;;;;;5092715;28;20261;-88
2022/02/28 10:55:49;;;;;;;11.90;5.43;;;8.20;46.70;;;;;;5095480;28;20176;-88
2022/02/28 10:58:17;;;;;;;11.30;5.90;;;8.20;46.40;;;;;;5094915;28;20628;-88
2022/02/28 11:00:55;;;;;;;7.45;5.45;;;8.20;46.30;;;;;;5095857;28;20275;-88
2022/02/28 11:03:22;;;;;;;11.52;6.15;;;8.20;45.70;;;;;;5095477;28;20278;-88
2022/02/28 11:05:56;;;;;;;8.75;5.55;;;8.30;46.60;;;;;;5094664;28;20206;-87
2022/02/28 11:08:24;;;;;;;14.02;5.47;;;8.30;46.90;;;;;;5095451;28;20176;-88
2022/02/28 11:10:54;;;;;;;7.60;5.35;;;8.40;45.70;;;;;;5093587;28;20551;-87
2022/02/28 11:13:21;;;;;;;9.52;5.05;;;8.50;45.10;;;;;;5094134;28;20348;-88
2022/02/28 11:15:49;;;;;;;8.25;5.68;;;8.50;45.10;;;;;;5095828;28;20191;-88
2022/02/28 11:18:20;;;;;;;8.35;5.82;;;8.70;45.20;;;;;;5093469;28;20523;-88
2022/02/28 11:20:49;;;;;;;9.38;5.55;;;8.90;45.50;;;;;;5095734;28;20188;-88
2022/02/28 11:23:18;;;;;;;7.88;5.35;;;9.20;44.70;;;;;;5094271;28;20202;-88
2022/02/28 11:25:48;;;;;;;9.93;5.30;;;9.40;43.80;;;;;;5096738;28;20176;-88
2022/02/28 11:28:16;;;;;;;7.30;5.68;;;9.50;43.70;;;;;;5106371;28;20168;-88
2022/02/28 11:30:42;;;;;;;12.52;6.03;;;9.50;44.00;;;;;;5105674;28;20679;-87
2022/02/28 11:33:10;;;;;;;10.80;7.28;;;9.70;45.00;;;;;;5096409;28;20194;-88
2022/02/28 11:35:53;;;;;;;9.48;6.18;;;9.60;43.30;;;;;;5095053;28;20210;-88
2022/02/28 11:38:18;;;;;;;7.70;5.80;;;9.50;42.70;;;;;;5095235;28;20198;-88
2022/02/28 11:41:05;;;;;;;8.20;6.13;;;9.60;43.20;;;;;;5094184;28;20172;-88
2022/02/28 11:43:33;;;;;;;12.18;5.72;;;9.50;43.20;;;;;;5092909;28;20294;-87
2022/02/28 11:46:12;;;;;;;10.43;5.75;;;9.40;43.10;;;;;;5094496;28;20267;-89
2022/02/28 11:48:40;;;;;;;9.38;5.32;;;9.40;42.70;;;;;;5093521;28;20164;-88
2022/02/28 11:51:28;;;;;;;8.60;5.90;;;9.40;42.70;;;;;;5094570;28;20164;-88
2022/02/28 11:54:08;;;;;;;12.20;5.68;;;9.40;43.10;;;;;;5092748;28;20255;-88
2022/02/28 11:56:37;;;;;;;8.60;5.30;;;9.60;43.00;;;;;;5093411;28;20168;-88
2022/02/28 11:59:05;;;;;;;12.65;6.50;;;9.80;42.50;;;;;;5093136;28;20176;-88
2022/02/28 12:01:41;;;;;;;17.83;5.85;;;9.60;42.00;;;;;;5092953;28;20179;-89
2022/02/28 12:04:07;;;;;;;12.48;6.18;;;9.50;42.00;;;;;;5092655;28;20208;-88
2022/02/28 12:06:55;;;;;;;8.37;5.03;;;9.70;42.30;;;;;;5094774;28;20229;-88
2022/02/28 12:09:33;;;;;;;9.07;4.70;;;9.80;41.20;;;;;;5092893;28;20206;-88
2022/02/28 12:12:19;;;;;;;8.27;6.50;;;9.60;41.20;;;;;;5094095;28;20168;-88
2022/02/28 12:14:57;;;;;;;7.18;4.78;;;9.70;41.90;;;;;;5094237;28;20312;-88
2022/02/28 12:17:34;;;;;;;10.35;6.50;;;9.80;41.40;;;;;;5094395;28;20206;-88
2022/02/28 12:20:32;;;;;;;7.60;5.05;;;9.90;41.90;;;;;;5097046;28;20661;-88
2022/02/28 12:22:58;;;;;;;6.60;5.30;;;10.00;42.20;;;;;;5080337;28;20581;-88
2022/02/28 12:25:45;;;;;;;8.37;5.37;;;10.10;42.00;;;;;;5091830;28;20172;-88
2022/02/28 12:28:38;;;;;;;7.38;5.53;;;10.00;40.90;;;;;;5102153;28;20491;-88
2022/02/28 12:31:06;;;;;;;9.18;5.45;;;10.00;40.90;;;;;;5108887;28;20171;-88
2022/02/28 12:33:35;;;;;;;11.07;6.07;;;10.10;40.70;;;;;;5111666;28;20198;-87
2022/02/28 12:36:11;;;;;;;9.10;6.07;;;10.00;40.60;;;;;;5107857;28;20183;-88
2022/02/28 12:38:39;;;;;;;7.50;4.55;;;10.20;40.50;;;;;;5109380;28;20172;-88
2022/02/28 12:41:07;;;;;;;7.10;5.85;;;10.30;40.40;;;;;;5102855;28;20224;-88
2022/02/28 12:43:35;;;;;;;8.70;5.40;;;10.40;38.90;;;;;;5099365;28;20223;-88
2022/02/28 12:46:04;;;;;;;16.73;6.32;;;10.30;39.20;;;;;;5096790;28;20187;-88
2022/02/28 12:48:30;;;;;;;8.30;4.78;;;10.40;39.60;;;;;;5096685;28;20241;-88
2022/02/28 12:50:59;;;;;;;7.60;5.32;;;10.40;39.10;;;;;;5094883;28;20172;-88
2022/02/28 12:53:27;;;;;;;8.95;5.00;;;10.50;39.00;;;;;;5096364;28;20188;-89